createdAt,value
2022-09-05T00:00:34.079Z,17.57
2022-09-05T00:01:33.968Z,17.59
2022-09-05T00:02:31.016Z,17.56
2022-09-05T00:03:31.486Z,17.56
2022-09-05T00:04:31.080Z,17.54
2022-09-05T00:05:31.184Z,17.51
2022-09-05T00:06:31.864Z,17.52
2022-09-05T00:07:57.972Z,17.51
2022-09-05T00:08:31.859Z,17.49
2022-09-05T00:09:31.064Z,17.48
2022-09-05T00:10:37.476Z,17.46
2022-09-05T00:11:40.512Z,17.44
2022-09-05T00:12:31.823Z,17.44
2022-09-05T00:13:30.834Z,17.42
2022-09-05T00:15:14.335Z,17.42
2022-09-05T00:15:31.843Z,17.39
2022-09-05T00:16:31.559Z,17.39
2022-09-05T00:18:09.502Z,17.39
2022-09-05T00:22:27.394Z,17.36
2022-09-05T00:24:19.670Z,17.38
2022-09-05T00:24:20.672Z,17.38
2022-09-05T00:24:26.079Z,17.39
2022-09-05T00:24:31.031Z,17.39
2022-09-05T00:24:37.609Z,17.36
2022-09-05T00:24:50.186Z,17.36
2022-09-05T00:25:32.616Z,17.36
2022-09-05T00:26:32.100Z,17.36
2022-09-05T00:27:30.798Z,17.34
2022-09-05T00:28:30.569Z,17.36
2022-09-05T00:30:26.876Z,17.36
2022-09-05T00:31:07.158Z,17.34
2022-09-05T00:31:55.128Z,17.36
2022-09-05T00:32:31.637Z,17.34
2022-09-05T00:33:30.698Z,17.33
2022-09-05T00:34:47.325Z,17.30
2022-09-05T00:35:31.583Z,17.31
2022-09-05T00:36:31.461Z,17.30
2022-09-05T00:37:30.483Z,17.30
2022-09-05T00:38:36.476Z,17.31
2022-09-05T00:39:31.544Z,17.30
2022-09-05T00:40:33.432Z,17.31
2022-09-05T00:41:34.454Z,17.34
2022-09-05T00:42:30.384Z,17.33
2022-09-05T00:43:30.352Z,17.33
2022-09-05T00:44:30.352Z,17.33
2022-09-05T00:45:30.322Z,17.31
2022-09-05T00:46:31.984Z,17.31
2022-09-05T00:47:30.313Z,17.31
2022-09-05T00:48:30.597Z,17.31
2022-09-05T00:49:30.315Z,17.31
2022-09-05T00:50:30.248Z,17.31
2022-09-05T00:51:34.591Z,17.30
2022-09-05T00:52:30.424Z,17.31
2022-09-05T00:53:30.212Z,17.30
2022-09-05T00:54:41.014Z,17.29
2022-09-05T00:55:31.207Z,17.27
2022-09-05T00:56:30.204Z,17.26
2022-09-05T00:57:30.280Z,17.23
2022-09-05T00:58:34.199Z,17.22
2022-09-05T00:59:30.122Z,17.20
2022-09-05T01:00:33.326Z,17.22
2022-09-05T01:01:34.013Z,17.23
2022-09-05T01:02:30.387Z,17.19
2022-09-05T01:03:30.070Z,17.16
2022-09-05T01:04:30.240Z,17.14
2022-09-05T01:05:30.054Z,17.14
2022-09-05T01:06:30.063Z,17.15
2022-09-05T01:07:30.034Z,17.15
2022-09-05T01:08:30.204Z,17.15
2022-09-05T01:09:29.997Z,17.15
2022-09-05T01:10:29.982Z,17.15
2022-09-05T01:11:30.725Z,17.14
2022-09-05T01:12:30.201Z,17.12
2022-09-05T01:13:29.936Z,17.14
2022-09-05T01:14:29.963Z,17.11
2022-09-05T01:15:32.526Z,17.09
2022-09-05T01:16:30.223Z,17.08
2022-09-05T01:17:29.896Z,17.06
2022-09-05T01:18:29.898Z,17.05
2022-09-05T01:19:30.181Z,17.05
2022-09-05T01:20:37.639Z,17.04
2022-09-05T01:21:34.609Z,17.02
2022-09-05T01:22:30.010Z,16.99
2022-09-05T01:23:29.789Z,16.97
2022-09-05T01:24:29.770Z,16.96
2022-09-05T01:25:29.810Z,16.93
2022-09-05T01:26:29.741Z,16.93
2022-09-05T01:27:33.878Z,16.90
2022-09-05T01:29:13.324Z,16.89
2022-09-05T01:29:30.701Z,16.89
2022-09-05T01:30:32.207Z,16.87
2022-09-05T01:31:29.904Z,16.89
2022-09-05T01:32:29.670Z,16.89
2022-09-05T01:33:29.651Z,16.90
2022-09-05T01:34:31.817Z,16.89
2022-09-05T01:35:29.689Z,16.87
2022-09-05T01:36:29.605Z,16.87
2022-09-05T01:37:33.550Z,16.87
2022-09-05T01:38:29.578Z,16.87
2022-09-05T01:40:11.007Z,16.89
2022-09-05T01:40:33.654Z,16.89
2022-09-05T01:41:33.249Z,16.90
2022-09-05T01:42:30.168Z,16.87
2022-09-05T01:43:29.578Z,16.87
2022-09-05T01:44:29.498Z,16.87
2022-09-05T01:45:39.353Z,16.87
2022-09-05T01:46:30.510Z,16.86
2022-09-05T01:47:31.193Z,16.87
2022-09-05T01:48:29.469Z,16.86
2022-09-05T01:49:29.431Z,16.84
2022-09-05T01:50:29.410Z,16.84
2022-09-05T01:51:31.537Z,16.83
2022-09-05T01:52:29.405Z,16.83
2022-09-05T01:53:29.420Z,16.83
2022-09-05T01:54:30.686Z,16.79
2022-09-05T01:55:29.466Z,16.79
2022-09-05T01:56:31.362Z,16.79
2022-09-05T01:57:29.315Z,16.78
2022-09-05T01:58:29.705Z,16.79
2022-09-05T01:59:29.295Z,16.78
2022-09-05T02:00:32.334Z,16.75
2022-09-05T02:01:33.364Z,16.76
2022-09-05T02:02:29.631Z,16.74
2022-09-05T02:03:29.245Z,16.72
2022-09-05T02:04:29.314Z,16.74
2022-09-05T02:05:48.648Z,16.71
2022-09-05T02:06:30.196Z,16.71
2022-09-05T02:07:30.831Z,16.72
2022-09-05T02:08:29.177Z,16.72
2022-09-05T02:09:29.147Z,16.71
2022-09-05T02:10:29.388Z,16.71
2022-09-05T02:11:35.989Z,16.69
2022-09-05T02:12:30.383Z,16.71
2022-09-05T02:13:29.089Z,16.68
2022-09-05T02:14:34.336Z,16.68
2022-09-05T02:15:30.229Z,16.68
2022-09-05T02:16:29.062Z,16.68
2022-09-05T02:17:46.368Z,16.68
2022-09-05T02:18:30.032Z,16.66
2022-09-05T02:19:29.011Z,16.65
2022-09-05T02:20:32.132Z,16.64
2022-09-05T02:21:32.015Z,16.65
2022-09-05T02:22:28.983Z,16.64
2022-09-05T02:23:41.119Z,16.61
2022-09-05T02:24:29.953Z,16.64
2022-09-05T02:26:00.478Z,16.60
2022-09-05T02:26:29.965Z,16.60
2022-09-05T02:27:38.881Z,16.58
2022-09-05T02:28:30.018Z,16.60
2022-09-05T02:29:29.952Z,16.60
2022-09-05T02:30:28.885Z,16.57
2022-09-05T02:31:29.078Z,16.57
2022-09-05T02:32:28.846Z,16.57
2022-09-05T02:33:28.897Z,16.56
2022-09-05T02:34:28.828Z,16.56
2022-09-05T02:35:28.913Z,16.56
2022-09-05T02:36:28.967Z,16.56
2022-09-05T02:39:18.590Z,16.53
2022-09-05T02:41:03.117Z,16.54
2022-09-05T02:45:02.533Z,16.53
2022-09-05T02:45:09.112Z,16.51
2022-09-05T02:45:13.250Z,16.50
2022-09-05T02:45:14.078Z,16.50
2022-09-05T02:45:18.590Z,16.50
2022-09-05T02:45:20.072Z,16.51
2022-09-05T02:45:30.387Z,16.50
2022-09-05T02:46:28.739Z,16.50
2022-09-05T02:47:28.762Z,16.50
2022-09-05T02:48:28.642Z,16.46
2022-09-05T02:53:21.762Z,16.47
2022-09-05T02:53:59.201Z,16.46
2022-09-05T02:57:27.276Z,16.46
2022-09-05T02:57:29.697Z,16.43
2022-09-05T02:57:35.753Z,16.42
2022-09-05T02:57:39.465Z,16.43
2022-09-05T02:57:41.355Z,16.43
2022-09-05T02:57:42.126Z,16.41
2022-09-05T02:58:06.586Z,16.42
2022-09-05T02:58:43.010Z,16.41
2022-09-05T02:59:36.252Z,16.39
2022-09-05T03:00:32.483Z,16.39
2022-09-05T03:01:31.688Z,16.41
2022-09-05T03:02:28.664Z,16.38
2022-09-05T03:03:28.434Z,16.36
2022-09-05T03:04:28.428Z,16.35
2022-09-05T03:05:28.438Z,16.35
2022-09-05T03:06:34.340Z,16.35
2022-09-05T03:07:29.380Z,16.33
2022-09-05T03:08:28.369Z,16.32
2022-09-05T03:09:28.457Z,16.33
2022-09-05T03:10:43.686Z,16.32
2022-09-05T03:11:29.340Z,16.33
2022-09-05T03:12:29.858Z,16.32
2022-09-05T03:13:28.353Z,16.33
2022-09-05T03:14:28.291Z,16.33
2022-09-05T03:15:28.297Z,16.35
2022-09-05T03:16:28.342Z,16.33
2022-09-05T03:17:28.243Z,16.32
2022-09-05T03:18:28.324Z,16.33
2022-09-05T03:19:28.225Z,16.33
2022-09-05T03:20:31.236Z,16.32
2022-09-05T03:21:31.278Z,16.31
2022-09-05T03:22:28.195Z,16.31
2022-09-05T03:23:30.777Z,16.29
2022-09-05T03:24:29.158Z,16.28
2022-09-05T03:25:28.334Z,16.26
2022-09-05T03:26:28.135Z,16.24
2022-09-05T03:27:29.357Z,16.23
2022-09-05T03:28:28.149Z,16.20
2022-09-05T03:29:28.088Z,16.20
2022-09-05T03:30:28.113Z,16.20
2022-09-05T03:31:28.130Z,16.20
2022-09-05T03:32:28.103Z,16.17
2022-09-05T03:33:28.060Z,16.17
2022-09-05T03:34:28.031Z,16.16
2022-09-05T03:35:28.248Z,16.15
2022-09-05T03:36:28.011Z,16.17
2022-09-05T03:37:28.172Z,16.17
2022-09-05T03:38:27.971Z,16.20
2022-09-05T03:39:28.086Z,16.20
2022-09-05T03:40:30.975Z,16.21
2022-09-05T03:41:40.335Z,16.24
2022-09-05T03:42:31.039Z,16.21
2022-09-05T03:43:28.059Z,16.23
2022-09-05T03:44:27.899Z,16.21
2022-09-05T03:45:36.629Z,16.21
2022-09-05T03:46:28.949Z,16.21
2022-09-05T03:47:28.007Z,16.23
2022-09-05T03:48:29.331Z,16.21
2022-09-05T03:52:19.229Z,16.20
2022-09-05T03:57:06.020Z,16.21
2022-09-05T03:57:12.028Z,16.24
2022-09-05T03:57:12.059Z,16.23
2022-09-05T03:57:15.451Z,16.23
2022-09-05T03:57:16.515Z,16.24
2022-09-05T03:57:23.098Z,16.20
2022-09-05T03:57:25.335Z,16.21
2022-09-05T03:57:38.476Z,16.20
2022-09-05T03:58:55.378Z,16.16
2022-09-05T03:59:28.690Z,16.15
2022-09-05T04:00:30.759Z,16.13
2022-09-05T04:03:29.432Z,16.13
2022-09-05T04:08:05.860Z,16.10
2022-09-05T04:08:14.319Z,16.10
2022-09-05T04:08:14.679Z,16.09
2022-09-05T04:08:19.485Z,16.04
2022-09-05T04:08:20.511Z,16.08
2022-09-05T04:08:20.540Z,16.09
2022-09-05T04:08:38.822Z,16.09
2022-09-05T04:09:49.333Z,16.09
2022-09-05T04:10:28.627Z,16.09
2022-09-05T04:11:27.534Z,16.10
2022-09-05T04:12:27.725Z,16.10
2022-09-05T04:13:27.513Z,16.09
2022-09-05T04:14:27.486Z,16.09
2022-09-05T04:15:27.485Z,16.10
2022-09-05T04:16:27.509Z,16.09
2022-09-05T04:17:27.603Z,16.09
2022-09-05T04:18:33.337Z,16.10
2022-09-05T04:19:28.491Z,16.09
2022-09-05T04:20:30.408Z,16.10
2022-09-05T04:21:30.587Z,16.13
2022-09-05T04:22:27.516Z,16.10
2022-09-05T04:23:27.499Z,16.12
2022-09-05T04:24:27.579Z,16.12
2022-09-05T04:25:27.360Z,16.13
2022-09-05T04:26:27.489Z,16.12
2022-09-05T04:27:28.010Z,16.15
2022-09-05T04:28:27.303Z,16.15
2022-09-05T04:29:27.291Z,16.15
2022-09-05T04:30:39.561Z,16.15
2022-09-05T04:31:28.575Z,16.15
2022-09-05T04:32:27.267Z,16.15
2022-09-05T04:33:35.838Z,16.16
2022-09-05T04:34:28.243Z,16.16
2022-09-05T04:35:27.213Z,16.16
2022-09-05T04:36:27.194Z,16.16
2022-09-05T04:37:27.265Z,16.15
2022-09-05T04:38:28.165Z,16.15
2022-09-05T04:39:27.210Z,16.15
2022-09-05T04:40:32.930Z,16.13
2022-09-05T04:41:39.291Z,16.16
2022-09-05T04:42:28.173Z,16.13
2022-09-05T04:43:27.147Z,16.15
2022-09-05T04:44:27.142Z,16.15
2022-09-05T04:45:27.169Z,16.15
2022-09-05T04:46:27.088Z,16.16
2022-09-05T04:47:27.068Z,16.15
2022-09-05T04:48:27.200Z,16.16
2022-09-05T04:49:27.016Z,16.16
2022-09-05T04:50:26.998Z,16.17
2022-09-05T04:51:28.074Z,16.20
2022-09-05T04:52:31.497Z,16.21
2022-09-05T04:53:26.969Z,16.21
2022-09-05T04:54:27.634Z,16.24
2022-09-05T04:55:26.939Z,16.26
2022-09-05T04:56:26.920Z,16.29
2022-09-05T04:57:26.909Z,16.32
2022-09-05T04:58:27.588Z,16.35
2022-09-05T05:02:59.729Z,16.38
2022-09-05T05:06:03.875Z,16.39
2022-09-05T05:06:09.429Z,16.46
2022-09-05T05:06:10.259Z,16.53
2022-09-05T05:06:13.325Z,16.49
2022-09-05T05:06:17.936Z,16.69
2022-09-05T05:06:18.130Z,16.61
2022-09-05T05:06:46.561Z,16.76
2022-09-05T05:07:27.875Z,16.81
2022-09-05T05:08:38.174Z,16.91
2022-09-05T05:09:27.751Z,16.97
2022-09-05T05:15:39.564Z,17.02
2022-09-05T05:17:54.427Z,17.24
2022-09-05T05:17:56.226Z,17.33
2022-09-05T05:17:59.515Z,17.16
2022-09-05T05:18:00.438Z,17.11
2022-09-05T05:18:01.654Z,17.38
2022-09-05T05:18:07.469Z,17.30
2022-09-05T05:18:13.922Z,17.33
2022-09-05T05:18:53.277Z,17.22
2022-09-05T05:19:27.643Z,17.14
2022-09-05T05:20:42.454Z,17.09
2022-09-05T05:21:30.606Z,17.06
2022-09-05T05:22:26.645Z,16.91
2022-09-05T05:23:26.558Z,16.89
2022-09-05T05:24:26.547Z,16.87
2022-09-05T05:25:26.527Z,16.84
2022-09-05T05:26:26.520Z,16.84
2022-09-05T05:27:26.509Z,16.87
2022-09-05T05:28:26.664Z,16.83
2022-09-05T05:29:26.480Z,16.84
2022-09-05T05:30:26.469Z,16.83
2022-09-05T05:31:26.471Z,16.83
2022-09-05T05:32:34.601Z,16.79
2022-09-05T05:33:27.459Z,16.79
2022-09-05T05:34:26.412Z,16.79
2022-09-05T05:35:26.403Z,16.79
2022-09-05T05:36:26.385Z,16.76
2022-09-05T05:37:26.383Z,16.78
2022-09-05T05:38:26.572Z,16.76
2022-09-05T05:39:26.442Z,16.76
2022-09-05T05:40:30.358Z,16.75
2022-09-05T05:41:29.335Z,16.75
2022-09-05T05:42:26.314Z,16.72
2022-09-05T05:43:26.296Z,16.72
2022-09-05T05:44:26.275Z,16.71
2022-09-05T05:45:26.296Z,16.71
2022-09-05T05:46:26.283Z,16.72
2022-09-05T05:47:31.424Z,16.72
2022-09-05T05:48:27.231Z,16.72
2022-09-05T05:49:26.368Z,16.74
2022-09-05T05:50:26.198Z,16.74
2022-09-05T05:51:34.778Z,16.75
2022-09-05T05:52:27.178Z,16.74
2022-09-05T05:53:33.629Z,16.74
2022-09-05T05:54:27.177Z,16.75
2022-09-05T05:55:50.600Z,16.75
2022-09-05T05:56:27.121Z,16.75
2022-09-05T05:57:26.185Z,16.75
2022-09-05T05:58:26.207Z,16.75
2022-09-05T05:59:27.091Z,16.75
2022-09-05T06:00:29.093Z,16.78
2022-09-05T06:01:37.785Z,16.81
2022-09-05T06:02:27.254Z,16.79
2022-09-05T06:03:27.540Z,16.84
2022-09-05T06:04:26.064Z,16.86
2022-09-05T06:05:26.023Z,16.89
2022-09-05T06:06:25.994Z,16.87
2022-09-05T06:07:25.993Z,16.89
2022-09-05T06:11:52.987Z,16.91
2022-09-05T06:13:44.642Z,16.94
2022-09-05T06:14:56.531Z,17.08
2022-09-05T06:14:56.617Z,16.99
2022-09-05T06:14:59.471Z,17.02
2022-09-05T06:15:01.052Z,17.05
2022-09-05T06:15:06.827Z,17.09
2022-09-05T06:15:27.859Z,17.11
2022-09-05T06:16:26.047Z,17.14
2022-09-05T06:17:28.172Z,17.20
2022-09-05T06:18:25.879Z,17.20
2022-09-05T06:19:25.838Z,17.23
2022-09-05T06:22:04.877Z,17.27
2022-09-05T06:22:09.973Z,17.33
2022-09-05T06:22:26.852Z,17.34
2022-09-05T06:23:39.964Z,17.41
2022-09-05T06:24:26.797Z,17.49
2022-09-05T06:25:25.782Z,17.57
2022-09-05T06:26:25.812Z,17.64
2022-09-05T06:27:25.780Z,17.64
2022-09-05T06:28:25.819Z,17.68
2022-09-05T06:29:34.608Z,17.71
2022-09-05T06:30:26.847Z,17.78
2022-09-05T06:31:31.103Z,17.89
2022-09-05T06:32:26.693Z,18.00
2022-09-05T06:33:25.884Z,18.04
2022-09-05T06:34:32.595Z,18.10
2022-09-05T06:35:26.624Z,18.11
2022-09-05T06:36:25.763Z,18.18
2022-09-05T06:37:25.618Z,18.19
2022-09-05T06:38:25.576Z,18.19
2022-09-05T06:39:25.598Z,18.22
2022-09-05T06:40:32.025Z,18.25
2022-09-05T06:41:28.593Z,18.33
2022-09-05T06:42:36.726Z,18.40
2022-09-05T06:43:26.685Z,18.38
2022-09-05T06:44:25.500Z,18.38
2022-09-05T06:45:28.281Z,18.47
2022-09-05T06:46:55.349Z,18.55
2022-09-05T06:47:34.498Z,18.68
2022-09-05T06:48:44.277Z,18.77
2022-09-05T06:49:28.958Z,18.78
2022-09-05T06:50:27.934Z,18.78
2022-09-05T06:51:25.422Z,18.83
2022-09-05T06:52:28.321Z,18.86
2022-09-05T06:53:25.374Z,18.92
2022-09-05T06:54:25.341Z,18.92
2022-09-05T06:55:25.324Z,18.98
2022-09-05T06:56:26.180Z,19.04
2022-09-05T06:57:25.325Z,19.08
2022-09-05T06:58:25.286Z,19.14
2022-09-05T06:59:25.375Z,19.11
2022-09-05T07:00:28.309Z,18.93
2022-09-05T07:01:38.459Z,18.95
2022-09-05T07:02:59.616Z,18.92
2022-09-05T07:03:26.640Z,18.99
2022-09-05T07:04:49.447Z,19.14
2022-09-05T07:05:39.774Z,19.21
2022-09-05T07:06:48.111Z,19.24
2022-09-05T07:07:27.614Z,19.31
2022-09-05T07:08:25.153Z,19.36
2022-09-05T07:09:28.583Z,19.24
2022-09-05T07:10:40.406Z,19.21
2022-09-05T07:11:26.143Z,19.24
2022-09-05T07:12:25.082Z,19.22
2022-09-05T07:13:26.202Z,19.26
2022-09-05T07:14:25.053Z,19.26
2022-09-05T07:15:25.063Z,19.24
2022-09-05T07:16:36.995Z,19.21
2022-09-05T07:17:26.043Z,19.19
2022-09-05T07:18:24.994Z,19.24
2022-09-05T07:19:24.984Z,19.34
2022-09-05T07:20:28.024Z,19.47
2022-09-05T07:21:27.965Z,19.54
2022-09-05T07:22:48.790Z,19.64
2022-09-05T07:24:07.154Z,19.73
2022-09-05T07:24:53.488Z,19.84
2022-09-05T07:25:26.461Z,19.96
2022-09-05T07:26:52.014Z,20.02
2022-09-05T07:27:25.869Z,20.04
2022-09-05T07:28:28.344Z,20.11
2022-09-05T07:29:27.963Z,20.25
2022-09-05T07:30:24.831Z,20.29
2022-09-05T07:31:31.670Z,20.36
2022-09-05T07:32:25.914Z,20.44
2022-09-05T07:33:24.879Z,20.56
2022-09-05T07:34:24.776Z,20.63
2022-09-05T07:35:24.772Z,20.80
2022-09-05T07:36:24.757Z,20.93
2022-09-05T07:37:24.732Z,20.81
2022-09-05T07:38:32.580Z,20.80
2022-09-05T07:39:29.182Z,20.82
2022-09-05T07:40:27.745Z,20.90
2022-09-05T07:41:27.700Z,20.92
2022-09-05T07:42:24.674Z,20.80
2022-09-05T07:43:24.674Z,20.70
2022-09-05T07:44:24.676Z,20.69
2022-09-05T07:45:24.675Z,20.77
2022-09-05T07:46:24.616Z,20.85
2022-09-05T07:47:24.627Z,20.92
2022-09-05T07:48:34.138Z,20.99
2022-09-05T07:49:25.600Z,21.09
2022-09-05T07:54:38.021Z,21.17
2022-09-05T07:56:53.302Z,20.97
2022-09-05T07:56:54.204Z,20.97
2022-09-05T07:56:54.790Z,21.06
2022-09-05T07:56:56.232Z,21.14
2022-09-05T07:56:59.129Z,20.93
2022-09-05T07:57:04.127Z,20.93
2022-09-05T07:57:31.398Z,20.85
2022-09-05T07:58:25.441Z,20.85
2022-09-05T07:59:24.460Z,20.81
2022-09-05T08:00:29.563Z,20.81
2022-09-05T08:01:27.441Z,20.87
2022-09-05T08:02:24.390Z,20.88
2022-09-05T08:03:24.480Z,20.97
2022-09-05T08:04:24.565Z,20.97
2022-09-05T08:05:34.243Z,21.00
2022-09-05T08:07:14.302Z,21.05
2022-09-05T08:07:47.175Z,21.05
2022-09-05T08:08:25.487Z,21.14
2022-09-05T08:10:06.247Z,21.20
2022-09-05T08:10:31.190Z,21.20
2022-09-05T08:11:26.445Z,21.25
2022-09-05T08:12:27.697Z,21.24
2022-09-05T08:13:27.373Z,21.18
2022-09-05T08:14:43.579Z,21.15
2022-09-05T08:15:25.207Z,21.17
2022-09-05T08:16:24.225Z,21.24
2022-09-05T08:17:30.008Z,21.22
2022-09-05T08:18:25.211Z,21.29
2022-09-05T08:19:24.152Z,21.33
2022-09-05T08:20:27.142Z,21.35
2022-09-05T08:21:28.091Z,21.32
2022-09-05T08:22:24.112Z,21.35
2022-09-05T08:23:24.341Z,21.39
2022-09-05T08:24:24.083Z,21.40
2022-09-05T08:25:24.081Z,21.35
2022-09-05T08:26:24.055Z,21.37
2022-09-05T08:27:24.045Z,21.40
2022-09-05T08:28:24.093Z,21.39
2022-09-05T08:29:24.077Z,21.50
2022-09-05T08:30:26.727Z,21.54
2022-09-05T08:31:24.037Z,21.60
2022-09-05T08:32:23.976Z,21.67
2022-09-05T08:33:23.975Z,21.72
2022-09-05T08:34:39.822Z,21.72
2022-09-05T08:35:24.989Z,21.80
2022-09-05T08:36:23.919Z,21.79
2022-09-05T08:37:23.899Z,21.77
2022-09-05T08:38:24.031Z,21.82
2022-09-05T08:39:23.929Z,21.92
2022-09-05T08:40:27.055Z,21.85
2022-09-05T08:41:49.278Z,21.82
2022-09-05T08:42:24.850Z,21.88
2022-09-05T08:44:13.551Z,21.92
2022-09-05T08:46:41.513Z,21.88
2022-09-05T08:46:42.011Z,21.89
2022-09-05T08:46:48.417Z,22.02
2022-09-05T08:47:24.814Z,22.13
2022-09-05T08:48:23.756Z,22.23
2022-09-05T08:49:37.046Z,22.30
2022-09-05T08:50:27.016Z,22.33
2022-09-05T08:51:23.714Z,22.44
2022-09-05T08:52:23.736Z,22.59
2022-09-05T08:53:43.121Z,22.68
2022-09-05T08:54:24.675Z,22.72
2022-09-05T08:55:23.657Z,22.76
2022-09-05T08:56:23.650Z,22.91
2022-09-05T08:57:24.605Z,22.98
2022-09-05T08:58:23.688Z,23.08
2022-09-05T08:59:32.167Z,23.12
2022-09-05T09:00:31.247Z,23.21
2022-09-05T09:01:26.704Z,23.36
2022-09-05T09:02:47.514Z,23.39
2022-09-05T09:03:26.014Z,23.54
2022-09-05T09:04:37.165Z,23.62
2022-09-05T09:05:24.591Z,23.65
2022-09-05T09:06:26.791Z,23.61
2022-09-05T09:07:50.613Z,23.28
2022-09-05T09:08:24.474Z,23.21
2022-09-05T09:09:23.463Z,23.23
2022-09-05T09:10:25.998Z,23.34
2022-09-05T09:11:23.483Z,23.41
2022-09-05T09:12:24.395Z,23.56
2022-09-05T09:13:23.439Z,23.69
2022-09-05T09:14:31.010Z,23.78
2022-09-05T09:15:24.376Z,23.87
2022-09-05T09:16:23.433Z,23.93
2022-09-05T09:17:24.979Z,23.99
2022-09-05T09:18:23.339Z,24.13
2022-09-05T09:19:29.341Z,24.10
2022-09-05T09:20:27.319Z,24.13
2022-09-05T09:21:26.319Z,24.11
2022-09-05T09:22:24.040Z,24.10
2022-09-05T09:23:32.305Z,24.18
2022-09-05T09:24:24.271Z,24.24
2022-09-05T09:25:26.393Z,24.23
2022-09-05T09:26:24.532Z,24.26
2022-09-05T09:27:41.690Z,24.33
2022-09-05T09:28:47.932Z,24.33
2022-09-05T09:29:24.223Z,24.39
2022-09-05T09:30:23.184Z,24.48
2022-09-05T09:31:23.257Z,24.50
2022-09-05T09:32:24.657Z,24.55
2022-09-05T09:33:27.268Z,24.63
2022-09-05T09:34:23.135Z,24.63
2022-09-05T09:35:23.146Z,24.65
2022-09-05T09:36:23.135Z,24.66
2022-09-05T09:37:25.464Z,24.63
2022-09-05T09:38:24.257Z,24.70
2022-09-05T09:39:38.013Z,24.81
2022-09-05T09:40:27.107Z,24.89
2022-09-05T09:41:26.049Z,24.95
2022-09-05T09:42:33.543Z,24.91
2022-09-05T09:43:24.020Z,24.74
2022-09-05T09:44:23.012Z,24.70
2022-09-05T09:45:28.594Z,24.78
2022-09-05T09:46:24.047Z,24.86
2022-09-05T09:47:23.721Z,24.88
2022-09-05T09:48:23.037Z,24.76
2022-09-05T09:49:23.722Z,24.74
2022-09-05T09:50:22.943Z,24.73
2022-09-05T09:51:23.093Z,24.68
2022-09-05T09:52:23.656Z,24.74
2022-09-05T09:53:22.886Z,24.70
2022-09-05T09:54:22.866Z,24.80
2022-09-05T09:55:22.844Z,24.84
2022-09-05T09:56:22.829Z,24.81
2022-09-05T09:57:23.643Z,24.86
2022-09-05T09:58:22.900Z,24.84
2022-09-05T09:59:22.795Z,24.81
2022-09-05T10:00:25.797Z,24.76
2022-09-05T10:01:36.176Z,24.78
2022-09-05T10:04:31.292Z,24.84
2022-09-05T10:05:35.435Z,24.76
2022-09-05T10:10:34.783Z,24.85
2022-09-05T10:10:35.710Z,25.18
2022-09-05T10:10:37.857Z,25.01
2022-09-05T10:10:52.716Z,25.53
2022-09-05T10:10:52.852Z,25.66
2022-09-05T10:11:09.668Z,25.38
2022-09-05T10:11:22.755Z,25.58
2022-09-05T10:12:24.387Z,25.70
2022-09-05T10:13:23.977Z,25.69
2022-09-05T10:14:35.363Z,25.70
2022-09-05T10:15:31.327Z,25.75
2022-09-05T10:16:23.564Z,25.78
2022-09-05T10:17:22.536Z,25.81
2022-09-05T10:18:24.360Z,25.80
2022-09-05T10:20:08.181Z,25.80
2022-09-05T10:20:29.463Z,25.77
2022-09-05T10:21:25.508Z,25.85
2022-09-05T10:22:38.153Z,25.96
2022-09-05T10:23:23.517Z,26.00
2022-09-05T10:24:22.594Z,26.10
2022-09-05T10:25:22.411Z,26.18
2022-09-05T10:26:22.427Z,26.21
2022-09-05T10:27:22.986Z,26.23
2022-09-05T10:28:22.393Z,26.15
2022-09-05T10:29:36.435Z,26.00
2022-09-05T10:31:21.997Z,26.07
2022-09-05T10:33:58.341Z,26.07
2022-09-05T10:35:10.779Z,26.07
2022-09-05T10:35:14.558Z,25.96
2022-09-05T10:35:17.980Z,25.96
2022-09-05T10:35:24.259Z,25.87
2022-09-05T10:36:22.379Z,25.96
2022-09-05T10:37:22.248Z,26.10
2022-09-05T10:38:22.245Z,26.21
2022-09-05T10:39:22.246Z,26.19
2022-09-05T10:40:25.228Z,26.21
2022-09-05T10:41:25.238Z,26.19
2022-09-05T10:42:22.195Z,26.21
2022-09-05T10:43:22.254Z,26.18
2022-09-05T10:44:22.178Z,26.02
2022-09-05T10:45:38.734Z,25.77
2022-09-05T10:46:47.020Z,25.80
2022-09-05T10:47:23.206Z,25.96
2022-09-05T10:48:22.114Z,26.13
2022-09-05T10:49:22.093Z,26.29
2022-09-05T10:50:22.074Z,26.29
2022-09-05T10:51:27.161Z,26.40
2022-09-05T10:52:23.065Z,26.55
2022-09-05T10:53:22.046Z,26.71
2022-09-05T10:54:22.029Z,26.81
2022-09-05T10:55:22.015Z,26.92
2022-09-05T10:56:22.019Z,26.95
2022-09-05T10:57:21.987Z,26.90
2022-09-05T10:58:31.856Z,26.83
2022-09-05T11:02:21.268Z,26.99
2022-09-05T11:02:24.628Z,26.83
2022-09-05T11:02:24.775Z,26.90
2022-09-05T11:02:36.799Z,26.93
2022-09-05T11:03:23.495Z,27.05
2022-09-05T11:04:22.015Z,27.15
2022-09-05T11:05:21.953Z,27.21
2022-09-05T11:06:24.966Z,27.33
2022-09-05T11:07:24.897Z,27.30
2022-09-05T11:08:22.833Z,27.29
2022-09-05T11:09:21.875Z,27.33
2022-09-05T11:10:21.805Z,27.32
2022-09-05T11:11:28.652Z,27.27
2022-09-05T11:12:22.812Z,27.35
2022-09-05T11:13:21.853Z,27.32
2022-09-05T11:14:27.093Z,27.35
2022-09-05T11:15:22.734Z,27.02
2022-09-05T11:16:21.759Z,26.92
2022-09-05T11:17:21.727Z,26.93
2022-09-05T11:18:21.697Z,26.97
2022-09-05T11:19:22.727Z,27.02
2022-09-05T11:20:34.959Z,27.17
2022-09-05T11:21:25.673Z,27.32
2022-09-05T11:22:22.933Z,27.30
2022-09-05T11:23:21.646Z,27.35
2022-09-05T11:24:26.672Z,27.21
2022-09-05T11:25:24.005Z,27.17
2022-09-05T11:26:22.591Z,27.12
2022-09-05T11:27:24.451Z,27.15
2022-09-05T11:28:21.574Z,27.29
2022-09-05T11:29:21.542Z,27.32
2022-09-05T11:30:31.015Z,27.15
2022-09-05T11:31:22.591Z,27.12
2022-09-05T11:34:54.665Z,27.14
2022-09-05T11:39:43.854Z,27.21
2022-09-05T11:39:51.368Z,27.17
2022-09-05T11:39:56.951Z,27.07
2022-09-05T11:40:00.281Z,27.14
2022-09-05T11:40:06.567Z,27.05
2022-09-05T11:40:08.376Z,27.12
2022-09-05T11:40:10.956Z,27.25
2022-09-05T11:40:38.192Z,27.33
2022-09-05T11:41:26.499Z,27.36
2022-09-05T11:42:21.370Z,27.52
2022-09-05T11:43:21.420Z,27.67
2022-09-05T11:44:24.693Z,27.75
2022-09-05T11:45:22.337Z,27.87
2022-09-05T11:46:21.341Z,27.93
2022-09-05T11:47:30.102Z,27.82
2022-09-05T11:48:22.424Z,27.67
2022-09-05T11:49:21.323Z,27.54
2022-09-05T11:50:21.274Z,27.54
2022-09-05T11:51:33.541Z,27.60
2022-09-05T11:52:22.235Z,27.65
2022-09-05T11:53:21.220Z,27.74
2022-09-05T11:54:21.287Z,27.86
2022-09-05T11:55:21.793Z,27.95
2022-09-05T11:56:23.507Z,27.89
2022-09-05T11:57:33.384Z,27.82
2022-09-05T11:58:43.663Z,27.77
2022-09-05T11:59:32.984Z,27.67
2022-09-05T12:00:32.017Z,27.75
2022-09-05T12:01:36.878Z,27.95
2022-09-05T12:02:23.873Z,28.10
2022-09-05T12:03:58.194Z,28.27
2022-09-05T12:04:22.072Z,28.32
2022-09-05T12:05:50.667Z,28.26
2022-09-05T12:06:22.180Z,28.29
2022-09-05T12:07:29.889Z,28.38
2022-09-05T12:08:22.014Z,28.35
2022-09-05T12:09:23.663Z,28.23
2022-09-05T12:10:46.140Z,28.14
2022-09-05T12:11:21.975Z,28.10
2022-09-05T12:12:41.157Z,28.11
2022-09-05T12:13:26.325Z,28.17
2022-09-05T12:14:25.729Z,28.19
2022-09-05T12:15:21.928Z,28.01
2022-09-05T12:16:20.940Z,27.90
2022-09-05T12:17:34.818Z,27.90
2022-09-05T12:18:24.367Z,27.95
2022-09-05T12:19:22.955Z,28.04
2022-09-05T12:20:23.849Z,28.20
2022-09-05T12:21:23.869Z,28.27
2022-09-05T12:22:24.020Z,28.32
2022-09-05T12:23:39.951Z,28.33
2022-09-05T12:25:16.990Z,28.32
2022-09-05T12:27:24.907Z,28.30
2022-09-05T12:27:39.427Z,28.39
2022-09-05T12:27:41.953Z,28.49
2022-09-05T12:29:26.563Z,28.45
2022-09-05T12:29:33.737Z,28.33
2022-09-05T12:30:21.718Z,28.41
2022-09-05T12:32:41.716Z,28.38
2022-09-05T12:33:43.756Z,28.39
2022-09-05T12:36:04.010Z,28.14
2022-09-05T12:36:12.350Z,28.08
2022-09-05T12:36:13.059Z,28.04
2022-09-05T12:40:27.586Z,28.17
2022-09-05T12:40:32.618Z,28.20
2022-09-05T12:40:54.148Z,28.08
2022-09-05T12:40:56.526Z,28.14
2022-09-05T12:41:37.660Z,28.10
2022-09-05T12:41:44.327Z,28.25
2022-09-05T12:42:26.041Z,28.33
2022-09-05T12:44:36.450Z,28.27
2022-09-05T12:44:41.823Z,28.19
2022-09-05T12:45:29.320Z,28.12
2022-09-05T12:46:24.325Z,28.05
2022-09-05T12:47:20.505Z,27.92
2022-09-05T12:48:20.528Z,27.90
2022-09-05T12:49:20.469Z,27.87
2022-09-05T12:50:20.447Z,28.00
2022-09-05T12:51:46.447Z,28.01
2022-09-05T12:52:21.417Z,28.11
2022-09-05T12:53:20.492Z,28.23